Kleine Brogel, Belgium
Current Conditions -  °F | °C
As of 10:25 PM on Thursday 27 Nov 2014 (Local Time) from EBBL Reporting Station
Overcast Overcast  
Wind Chill: 42°   Ceiling: 2100
Heat Index: 45°   Visibility: 3mi
Dew Point: 43°   Wind: 5mph
Humidity: 93%   Direction: 90°E
Pressure: 29.71"   Gusts: NA
Location:  51.17°N, 5.45°E
Report Text: EBBL 272125Z AUTO 09004KT 5000 FEW004/// OVC021/// 07/06 Q1006 WHT
Loading
Personal Weather Stations






























Interactive Weather Map New forecast layout! Learn more

10-Day Weather Forecast

Advertisements
Track Severe Weather on mobile